createdAt,value
2022-11-24T00:00:49.620Z,89.89
2022-11-24T00:03:58.939Z,89.61
2022-11-24T00:07:01.658Z,89.75
2022-11-24T00:10:05.014Z,89.30
2022-11-24T00:13:07.832Z,89.07
2022-11-24T00:16:19.375Z,89.82
2022-11-24T00:19:22.132Z,89.14
2022-11-24T00:22:24.892Z,89.34
2022-11-24T00:25:27.636Z,89.83
2022-11-24T00:28:30.372Z,90.21
2022-11-24T00:31:39.307Z,91.13
2022-11-24T00:34:42.137Z,91.35
2022-11-24T00:37:44.807Z,91.46
2022-11-24T00:40:47.553Z,91.06
2022-11-24T00:43:51.053Z,91.35
2022-11-24T00:46:53.946Z,91.44
2022-11-24T00:49:56.839Z,91.08
2022-11-24T00:52:59.561Z,90.89
2022-11-24T00:56:04.150Z,91.87
2022-11-24T00:59:06.869Z,91.09
2022-11-24T01:02:09.735Z,91.43
2022-11-24T01:05:12.709Z,90.88
2022-11-24T01:08:15.475Z,90.69
2022-11-24T01:11:50.422Z,91.49
2022-11-24T01:14:53.181Z,91.38
2022-11-24T01:17:56.798Z,91.03
2022-11-24T01:21:07.202Z,91.55
2022-11-24T01:24:13.399Z,91.39
2022-11-24T01:27:16.422Z,91.46
2022-11-24T01:30:19.200Z,91.48
2022-11-24T01:33:21.946Z,91.26
2022-11-24T01:36:26.524Z,91.20
2022-11-24T01:39:29.354Z,90.94
2022-11-24T01:42:51.713Z,90.74
2022-11-24T01:45:56.022Z,91.47
2022-11-24T01:49:19.122Z,91.44
2022-11-24T01:52:39.985Z,91.97
2022-11-24T01:55:42.789Z,92.18
2022-11-24T01:58:49.281Z,90.86
2022-11-24T02:01:53.495Z,91.04
2022-11-24T02:05:01.141Z,90.79
2022-11-24T02:08:05.230Z,91.20
2022-11-24T02:11:08.114Z,90.74
2022-11-24T02:14:14.201Z,90.61
2022-11-24T02:17:16.926Z,90.77
2022-11-24T02:20:19.839Z,90.97
2022-11-24T02:23:44.317Z,90.26
2022-11-24T02:26:49.801Z,90.71
2022-11-24T02:29:52.738Z,90.40
2022-11-24T02:32:55.743Z,90.43
2022-11-24T02:35:58.476Z,90.74
2022-11-24T02:39:01.507Z,90.20
2022-11-24T02:42:09.149Z,90.02
2022-11-24T02:45:13.011Z,90.72
2022-11-24T02:48:16.867Z,90.32
2022-11-24T02:51:19.990Z,90.76
2022-11-24T02:54:22.813Z,90.57
2022-11-24T02:57:25.594Z,90.11
2022-11-24T03:00:28.352Z,89.89
2022-11-24T03:03:31.618Z,89.81
2022-11-24T03:06:34.320Z,89.62
2022-11-24T03:09:38.462Z,90.22
2022-11-24T03:12:41.213Z,90.30
2022-11-24T03:15:44.085Z,90.04
2022-11-24T03:18:48.319Z,90.39
2022-11-24T03:21:51.409Z,90.03
2022-11-24T03:24:54.190Z,89.81
2022-11-24T03:27:58.305Z,89.91
2022-11-24T03:31:02.297Z,89.48
2022-11-24T03:34:05.199Z,88.81
2022-11-24T03:37:07.957Z,87.58
2022-11-24T03:40:11.095Z,86.65
2022-11-24T03:43:13.951Z,86.80
2022-11-24T03:46:16.701Z,88.14
2022-11-24T03:49:19.396Z,87.13
2022-11-24T03:52:22.120Z,85.74
2022-11-24T03:55:24.901Z,84.29
2022-11-24T03:58:28.390Z,85.89
2022-11-24T04:01:31.274Z,85.09
2022-11-24T04:04:34.574Z,85.08
2022-11-24T04:07:37.609Z,84.43
2022-11-24T04:10:40.406Z,83.91
2022-11-24T04:13:43.157Z,83.56
2022-11-24T04:16:45.821Z,83.75
2022-11-24T04:19:48.587Z,83.84
2022-11-24T04:22:52.147Z,84.04
2022-11-24T04:25:54.930Z,84.13
2022-11-24T04:28:57.761Z,83.08
2022-11-24T04:32:00.504Z,83.25
2022-11-24T04:35:04.528Z,83.40
2022-11-24T04:38:07.322Z,84.22
2022-11-24T04:41:10.141Z,83.61
2022-11-24T04:44:12.811Z,83.56
2022-11-24T04:47:21.631Z,83.21
2022-11-24T04:50:24.482Z,83.42
2022-11-24T04:53:27.169Z,83.08
2022-11-24T04:56:29.882Z,82.67
2022-11-24T04:59:32.855Z,81.50
2022-11-24T05:02:35.542Z,81.09
2022-11-24T05:05:38.267Z,80.21
2022-11-24T05:08:41.012Z,79.73
2022-11-24T05:11:44.372Z,79.68
2022-11-24T05:14:47.102Z,80.10
2022-11-24T05:17:49.845Z,80.85
2022-11-24T05:20:52.896Z,81.01
2022-11-24T05:23:55.717Z,81.22
2022-11-24T05:26:58.659Z,81.91
2022-11-24T05:30:01.607Z,81.43
2022-11-24T05:33:06.954Z,81.64
2022-11-24T05:36:29.987Z,82.46
2022-11-24T05:39:34.822Z,82.40
2022-11-24T05:42:46.268Z,81.85
2022-11-24T05:45:50.240Z,82.13
2022-11-24T05:48:53.142Z,82.42
2022-11-24T05:51:56.610Z,83.14
2022-11-24T05:54:59.426Z,82.55
2022-11-24T05:58:04.649Z,82.62
2022-11-24T06:01:07.819Z,83.22
2022-11-24T06:04:10.707Z,82.93
2022-11-24T06:07:13.955Z,82.92
2022-11-24T06:10:17.879Z,84.15
2022-11-24T06:13:20.777Z,84.61
2022-11-24T06:16:23.976Z,85.57
2022-11-24T06:19:27.178Z,86.90
2022-11-24T06:22:29.992Z,87.28
2022-11-24T06:25:32.884Z,86.60
2022-11-24T06:28:35.984Z,86.96
2022-11-24T06:31:38.906Z,86.54
2022-11-24T06:34:41.805Z,86.93
2022-11-24T06:37:45.896Z,86.87
2022-11-24T06:40:48.835Z,87.54
2022-11-24T06:43:51.606Z,86.69
2022-11-24T06:46:54.414Z,86.92
2022-11-24T06:49:57.222Z,87.33
2022-11-24T06:53:00.280Z,87.01
2022-11-24T06:56:07.458Z,86.07
2022-11-24T06:59:20.749Z,85.74
2022-11-24T07:02:27.603Z,86.01
2022-11-24T07:05:31.739Z,85.63
2022-11-24T07:08:34.558Z,86.13
2022-11-24T07:11:38.017Z,86.32
2022-11-24T07:14:40.954Z,86.31
2022-11-24T07:17:43.863Z,86.32
2022-11-24T07:20:46.742Z,86.37
2022-11-24T07:23:50.921Z,86.13
2022-11-24T07:26:53.788Z,85.66
2022-11-24T07:30:26.362Z,86.82
2022-11-24T07:33:32.869Z,86.26
2022-11-24T07:36:35.711Z,86.03
2022-11-24T07:39:38.808Z,85.52
2022-11-24T07:42:42.239Z,85.73
2022-11-24T07:46:21.667Z,84.81
2022-11-24T07:49:24.806Z,84.34
2022-11-24T07:52:27.676Z,83.85
2022-11-24T07:55:30.962Z,83.58
2022-11-24T07:58:36.208Z,82.21
2022-11-24T08:01:39.487Z,82.73
2022-11-24T08:04:43.825Z,83.16
2022-11-24T08:07:47.741Z,82.49
2022-11-24T08:10:51.741Z,82.90
2022-11-24T08:14:06.308Z,82.81
2022-11-24T08:17:09.883Z,76.61
2022-11-24T08:20:13.162Z,70.64
2022-11-24T08:23:16.297Z,64.71
2022-11-24T08:26:19.575Z,61.54
2022-11-24T08:29:22.469Z,55.29
2022-11-24T08:32:25.432Z,51.31
2022-11-24T08:35:29.397Z,52.27
2022-11-24T08:38:32.516Z,50.27
2022-11-24T08:41:36.064Z,46.44
2022-11-24T08:44:39.008Z,44.34
2022-11-24T08:47:41.708Z,42.53
2022-11-24T08:50:47.934Z,38.91
2022-11-24T08:53:58.523Z,38.25
2022-11-24T08:57:07.493Z,38.46
2022-11-24T09:04:39.228Z,38.54
2022-11-24T09:07:42.113Z,35.63
2022-11-24T09:10:45.624Z,34.50
2022-11-24T09:13:49.465Z,36.98
2022-11-24T09:16:52.497Z,35.63
2022-11-24T09:19:56.136Z,38.70
2022-11-24T09:22:58.941Z,34.64
2022-11-24T09:26:10.115Z,36.94
2022-11-24T09:29:13.891Z,34.99
2022-11-24T09:32:17.183Z,39.02
2022-11-24T09:35:20.224Z,41.52
2022-11-24T09:38:23.334Z,38.07
2022-11-24T09:41:41.738Z,44.95
2022-11-24T09:45:10.529Z,46.22
2022-11-24T09:48:21.883Z,48.76
2022-11-24T09:51:32.618Z,46.03
2022-11-24T09:54:38.708Z,44.68
2022-11-24T09:57:44.223Z,37.53
2022-11-24T10:00:58.844Z,41.50
2022-11-24T10:04:06.359Z,43.95
2022-11-24T10:07:38.282Z,46.65
2022-11-24T10:11:00.961Z,42.30
2022-11-24T10:14:39.572Z,43.59
2022-11-24T10:17:48.119Z,41.45
2022-11-24T10:21:25.177Z,40.28
2022-11-24T10:24:48.130Z,37.85
2022-11-24T10:28:03.990Z,39.53
2022-11-24T10:31:36.199Z,38.63
2022-11-24T10:34:44.128Z,41.43
2022-11-24T10:37:57.185Z,44.22
2022-11-24T10:41:14.673Z,48.14
2022-11-24T10:44:17.488Z,50.87
2022-11-24T10:47:22.979Z,50.66
2022-11-24T10:50:33.370Z,51.61
2022-11-24T10:53:41.244Z,49.62
2022-11-24T10:56:47.200Z,48.44
2022-11-24T10:59:50.252Z,44.83
2022-11-24T11:03:17.802Z,44.41
2022-11-24T11:06:29.488Z,46.98
2022-11-24T11:09:37.087Z,49.42
2022-11-24T11:12:45.022Z,51.24
2022-11-24T11:15:48.392Z,49.12
2022-11-24T11:18:52.863Z,45.23
2022-11-24T11:22:14.658Z,40.60
2022-11-24T11:25:27.750Z,36.79
2022-11-24T11:28:36.231Z,40.98
2022-11-24T11:31:40.305Z,40.36
2022-11-24T11:34:43.829Z,38.14
2022-11-24T11:37:49.846Z,35.63
2022-11-24T11:40:52.851Z,35.08
2022-11-24T11:44:28.015Z,33.84
2022-11-24T11:47:38.502Z,33.69
2022-11-24T11:51:28.284Z,32.98
2022-11-24T11:54:37.418Z,32.91
2022-11-24T11:57:58.952Z,33.62
2022-11-24T12:01:05.160Z,33.95
2022-11-24T12:04:21.787Z,34.06
2022-11-24T12:13:17.522Z,44.13
2022-11-24T12:16:49.473Z,41.33
2022-11-24T12:20:03.465Z,44.65
2022-11-24T12:23:26.727Z,43.95
2022-11-24T12:26:42.262Z,45.19
2022-11-24T12:29:51.704Z,45.76
2022-11-24T12:33:26.102Z,45.22
2022-11-24T12:36:55.538Z,46.25
2022-11-24T12:40:12.732Z,48.69
2022-11-24T12:43:33.743Z,50.48
2022-11-24T12:46:57.516Z,52.30
2022-11-24T12:50:09.234Z,54.43
2022-11-24T12:53:24.517Z,54.47
2022-11-24T12:57:07.772Z,55.04
2022-11-24T13:00:21.997Z,56.17
2022-11-24T13:03:24.739Z,55.74
2022-11-24T13:06:49.286Z,55.35
2022-11-24T13:14:16.827Z,53.80
2022-11-24T13:17:50.311Z,55.26
2022-11-24T13:20:57.428Z,58.83
2022-11-24T13:24:06.458Z,58.88
2022-11-24T13:27:26.859Z,60.38
2022-11-24T13:30:35.948Z,61.92
2022-11-24T13:33:42.123Z,62.54
2022-11-24T13:36:53.815Z,63.59
2022-11-24T13:39:59.496Z,64.11
2022-11-24T13:43:02.866Z,64.30
2022-11-24T13:46:09.910Z,65.58
2022-11-24T13:49:21.037Z,66.72
2022-11-24T13:52:39.687Z,68.09
2022-11-24T13:55:56.602Z,68.23
2022-11-24T13:59:03.261Z,69.04
2022-11-24T14:02:21.939Z,69.85
2022-11-24T14:05:38.010Z,69.77
2022-11-24T14:08:41.306Z,70.61
2022-11-24T14:11:47.000Z,70.71
2022-11-24T14:14:57.343Z,70.02
2022-11-24T14:18:00.355Z,70.78
2022-11-24T14:21:27.978Z,71.18
2022-11-24T14:24:39.698Z,71.37
2022-11-24T14:27:43.068Z,71.21
2022-11-24T14:30:50.438Z,70.72
2022-11-24T14:34:11.436Z,69.82
2022-11-24T14:37:14.236Z,69.67
2022-11-24T14:40:45.119Z,69.79
2022-11-24T14:43:47.859Z,70.69
2022-11-24T14:46:51.631Z,69.69
2022-11-24T14:49:55.779Z,68.33
2022-11-24T14:52:59.308Z,67.83
2022-11-24T14:56:36.083Z,67.96
2022-11-24T14:59:39.658Z,68.09
2022-11-24T15:02:48.573Z,67.79
2022-11-24T15:06:00.614Z,68.71
2022-11-24T15:09:03.608Z,69.12
2022-11-24T15:12:08.835Z,69.49
2022-11-24T15:15:14.820Z,70.11
2022-11-24T15:18:31.651Z,69.94
2022-11-24T15:21:36.787Z,70.33
2022-11-24T15:24:51.407Z,70.25
2022-11-24T15:27:54.449Z,70.22
2022-11-24T15:31:02.196Z,70.76
2022-11-24T15:34:05.100Z,71.11
2022-11-24T15:37:10.881Z,71.45
2022-11-24T15:40:14.310Z,71.86
2022-11-24T15:43:30.927Z,72.70
2022-11-24T15:46:38.451Z,72.84
2022-11-24T15:49:41.647Z,73.68
2022-11-24T15:52:45.307Z,73.46
2022-11-24T15:55:48.916Z,73.44
2022-11-24T15:58:52.883Z,73.78
2022-11-24T16:01:55.680Z,74.85
2022-11-24T16:04:59.376Z,74.99
2022-11-24T16:08:02.169Z,75.36
2022-11-24T16:11:04.919Z,75.88
2022-11-24T16:14:07.698Z,76.76
2022-11-24T16:17:10.561Z,76.39
2022-11-24T16:20:13.670Z,76.46
2022-11-24T16:23:16.870Z,75.60
2022-11-24T16:26:19.691Z,75.81
2022-11-24T16:29:23.900Z,76.35
2022-11-24T16:32:26.622Z,76.23
2022-11-24T16:35:29.319Z,76.53
2022-11-24T16:38:32.593Z,76.65
2022-11-24T16:41:35.699Z,76.52
2022-11-24T16:44:38.683Z,76.88
2022-11-24T16:47:43.074Z,77.76
2022-11-24T16:50:46.027Z,77.62
2022-11-24T16:53:56.616Z,77.37
2022-11-24T16:56:59.454Z,77.52
2022-11-24T17:00:02.451Z,77.53
2022-11-24T17:03:05.745Z,77.63
2022-11-24T17:06:15.931Z,77.06
2022-11-24T17:09:19.235Z,77.76
2022-11-24T17:12:22.105Z,77.67
2022-11-24T17:15:33.707Z,77.98
2022-11-24T17:18:39.138Z,78.99
2022-11-24T17:21:43.309Z,78.30
2022-11-24T17:24:46.169Z,78.46
2022-11-24T17:27:49.055Z,78.78
2022-11-24T17:30:52.134Z,79.87
2022-11-24T17:33:57.516Z,79.30
2022-11-24T17:37:00.518Z,79.49
2022-11-24T17:40:27.372Z,79.83
2022-11-24T17:43:27.818Z,80.69
2022-11-24T17:46:31.556Z,81.29
2022-11-24T17:49:34.472Z,81.54
2022-11-24T17:52:37.417Z,83.60
2022-11-24T17:55:41.040Z,84.43
2022-11-24T17:58:44.783Z,83.53
2022-11-24T18:01:47.841Z,83.93
2022-11-24T18:04:50.808Z,84.45
2022-11-24T18:07:55.350Z,85.37
2022-11-24T18:11:04.201Z,85.66
2022-11-24T18:14:07.314Z,85.69
2022-11-24T18:17:10.518Z,86.41
2022-11-24T18:20:18.948Z,86.51
2022-11-24T18:23:21.917Z,86.66
2022-11-24T18:26:25.050Z,87.43
2022-11-24T18:29:28.032Z,87.50
2022-11-24T18:32:32.725Z,87.13
2022-11-24T18:35:35.942Z,87.17
2022-11-24T18:38:39.346Z,87.17
2022-11-24T18:41:42.144Z,85.96
2022-11-24T18:44:48.603Z,86.24
2022-11-24T18:47:54.178Z,85.40
2022-11-24T18:50:57.672Z,85.75
2022-11-24T18:54:03.115Z,86.17
2022-11-24T18:57:06.360Z,86.04
2022-11-24T19:00:10.576Z,85.97
2022-11-24T19:03:14.924Z,85.95
2022-11-24T19:06:21.409Z,85.95
2022-11-24T19:09:25.653Z,86.42
2022-11-24T19:12:29.088Z,85.80
2022-11-24T19:15:34.301Z,85.56
2022-11-24T19:18:37.383Z,85.31
2022-11-24T19:21:41.273Z,84.84
2022-11-24T19:24:47.456Z,84.75
2022-11-24T19:27:50.708Z,84.68
2022-11-24T19:30:53.917Z,84.70
2022-11-24T19:33:58.966Z,85.17
2022-11-24T19:37:02.052Z,84.15
2022-11-24T19:40:06.340Z,84.38
2022-11-24T19:43:09.182Z,84.63
2022-11-24T19:46:15.198Z,84.69
2022-11-24T19:49:18.290Z,84.28
2022-11-24T19:52:21.719Z,84.40
2022-11-24T19:55:24.888Z,85.34
2022-11-24T19:58:29.988Z,85.36
2022-11-24T20:01:36.223Z,85.34
2022-11-24T20:04:41.439Z,85.60
2022-11-24T20:07:44.740Z,85.65
2022-11-24T20:10:47.513Z,85.47
2022-11-24T20:13:51.837Z,84.87
2022-11-24T20:16:54.942Z,84.76
2022-11-24T20:19:58.065Z,84.88
2022-11-24T20:23:01.313Z,84.81
2022-11-24T20:26:13.636Z,84.62
2022-11-24T20:29:18.456Z,85.25
2022-11-24T20:32:21.526Z,85.81
2022-11-24T20:35:24.597Z,86.53
2022-11-24T20:38:29.433Z,86.51
2022-11-24T20:41:34.953Z,85.85
2022-11-24T20:44:38.257Z,85.64
2022-11-24T20:47:41.075Z,84.97
2022-11-24T20:50:49.746Z,85.59
2022-11-24T20:53:57.698Z,86.29
2022-11-24T20:57:00.751Z,86.90
2022-11-24T21:00:04.573Z,86.67
2022-11-24T21:03:08.557Z,86.99
2022-11-24T21:06:13.304Z,87.00
2022-11-24T21:09:17.135Z,87.72
2022-11-24T21:12:20.014Z,87.96
2022-11-24T21:15:24.015Z,88.06
2022-11-24T21:18:27.138Z,87.30
2022-11-24T21:21:34.352Z,88.20
2022-11-24T21:24:37.346Z,87.51
2022-11-24T21:27:40.721Z,87.69
2022-11-24T21:30:43.609Z,86.63
2022-11-24T21:33:48.524Z,85.13
2022-11-24T21:36:51.337Z,84.82
2022-11-24T21:39:54.097Z,84.39
2022-11-24T21:42:59.506Z,84.96
2022-11-24T21:46:07.292Z,84.91
2022-11-24T21:49:10.966Z,84.69
2022-11-24T21:52:13.847Z,85.44
2022-11-24T21:55:16.897Z,85.53
2022-11-24T21:58:19.729Z,85.35
2022-11-24T22:01:25.936Z,85.46
2022-11-24T22:04:28.920Z,84.73
2022-11-24T22:07:34.875Z,85.15
2022-11-24T22:10:37.753Z,84.70
2022-11-24T22:13:41.388Z,85.53
2022-11-24T22:16:44.391Z,84.96
2022-11-24T22:19:48.155Z,85.72
2022-11-24T22:22:50.965Z,86.53
2022-11-24T22:25:53.764Z,86.08
2022-11-24T22:28:58.203Z,87.19
2022-11-24T22:32:01.088Z,86.68
2022-11-24T22:35:04.431Z,86.54
2022-11-24T22:38:07.265Z,86.53
2022-11-24T22:41:12.457Z,86.76
2022-11-24T22:44:15.202Z,86.74
2022-11-24T22:47:17.915Z,86.15
2022-11-24T22:50:20.838Z,86.21
2022-11-24T22:53:23.583Z,86.11
2022-11-24T22:56:32.468Z,86.17
2022-11-24T22:59:35.900Z,86.73
2022-11-24T23:02:38.609Z,87.30
2022-11-24T23:05:41.753Z,86.96
2022-11-24T23:08:44.724Z,87.29
2022-11-24T23:11:47.598Z,88.49
2022-11-24T23:14:50.414Z,88.53
2022-11-24T23:17:53.168Z,88.50
2022-11-24T23:20:56.810Z,89.63
2022-11-24T23:24:01.776Z,89.21
2022-11-24T23:27:05.562Z,88.22
2022-11-24T23:30:08.939Z,87.34
2022-11-24T23:33:11.719Z,86.59
2022-11-24T23:36:17.484Z,86.67
2022-11-24T23:39:20.334Z,86.50
2022-11-24T23:42:23.201Z,86.18
2022-11-24T23:45:26.010Z,86.07
2022-11-24T23:48:29.263Z,86.55
2022-11-24T23:51:33.574Z,86.30
2022-11-24T23:54:36.649Z,85.96
2022-11-24T23:57:39.607Z,86.79
